sensor_id;sensor_type;location;lat;lon;timestamp;pressure;altitude;pressure_sealevel;temperature;humidity
21574;BME280;10948;48.706;9.258;2023-01-10T00:00:18;97503.72;;;5.78;100.00
21574;BME280;10948;48.706;9.258;2023-01-10T00:02:44;97511.13;;;5.86;100.00
21574;BME280;10948;48.706;9.258;2023-01-10T00:05:09;97507.28;;;5.94;100.00
21574;BME280;10948;48.706;9.258;2023-01-10T00:07:34;97512.25;;;5.80;100.00
21574;BME280;10948;48.706;9.258;2023-01-10T00:10:00;97514.69;;;5.83;100.00
21574;BME280;10948;48.706;9.258;2023-01-10T00:12:25;97522.59;;;5.79;100.00
21574;BME280;10948;48.706;9.258;2023-01-10T00:15:10;97520.91;;;5.98;100.00
21574;BME280;10948;48.706;9.258;2023-01-10T00:17:35;97522.31;;;5.86;100.00
21574;BME280;10948;48.706;9.258;2023-01-10T00:20:00;97523.06;;;5.88;100.00
21574;BME280;10948;48.706;9.258;2023-01-10T00:22:26;97526.22;;;5.95;100.00
21574;BME280;10948;48.706;9.258;2023-01-10T00:24:51;97531.22;;;5.79;100.00
21574;BME280;10948;48.706;9.258;2023-01-10T00:27:16;97543.06;;;5.83;100.00
21574;BME280;10948;48.706;9.258;2023-01-10T00:29:46;97537.41;;;5.75;100.00
21574;BME280;10948;48.706;9.258;2023-01-10T00:32:11;97542.78;;;5.71;100.00
21574;BME280;10948;48.706;9.258;2023-01-10T00:34:36;97543.78;;;5.87;100.00
21574;BME280;10948;48.706;9.258;2023-01-10T00:37:02;97548.63;;;5.74;100.00
21574;BME280;10948;48.706;9.258;2023-01-10T00:39:27;97555.41;;;5.77;100.00
21574;BME280;10948;48.706;9.258;2023-01-10T00:41:52;97571.47;;;5.83;100.00
21574;BME280;10948;48.706;9.258;2023-01-10T00:44:36;97570.72;;;5.81;100.00
21574;BME280;10948;48.706;9.258;2023-01-10T00:47:01;97574.28;;;5.77;100.00
21574;BME280;10948;48.706;9.258;2023-01-10T00:49:26;97574.06;;;5.63;100.00
21574;BME280;10948;48.706;9.258;2023-01-10T00:51:52;97572.78;;;5.73;100.00
21574;BME280;10948;48.706;9.258;2023-01-10T00:54:17;97581.50;;;5.71;100.00
21574;BME280;10948;48.706;9.258;2023-01-10T00:56:42;97580.03;;;5.65;100.00
21574;BME280;10948;48.706;9.258;2023-01-10T00:59:07;97582.03;;;5.77;100.00
21574;BME280;10948;48.706;9.258;2023-01-10T01:01:33;97581.53;;;5.69;100.00
21574;BME280;10948;48.706;9.258;2023-01-10T01:04:03;97586.00;;;5.66;100.00
21574;BME280;10948;48.706;9.258;2023-01-10T01:06:31;97581.44;;;5.72;100.00
21574;BME280;10948;48.706;9.258;2023-01-10T01:09:01;97593.25;;;5.58;100.00
21574;BME280;10948;48.706;9.258;2023-01-10T01:11:27;97602.88;;;5.54;100.00
21574;BME280;10948;48.706;9.258;2023-01-10T01:13:52;97604.69;;;5.52;100.00
21574;BME280;10948;48.706;9.258;2023-01-10T01:16:17;97609.25;;;5.46;100.00
21574;BME280;10948;48.706;9.258;2023-01-10T01:18:42;97612.94;;;5.60;100.00
21574;BME280;10948;48.706;9.258;2023-01-10T01:21:08;97619.75;;;5.61;100.00
21574;BME280;10948;48.706;9.258;2023-01-10T01:23:33;97616.63;;;5.55;100.00
21574;BME280;10948;48.706;9.258;2023-01-10T01:25:59;97624.94;;;5.61;100.00
21574;BME280;10948;48.706;9.258;2023-01-10T01:28:24;97630.22;;;5.58;100.00
21574;BME280;10948;48.706;9.258;2023-01-10T01:30:50;97634.09;;;5.48;100.00
21574;BME280;10948;48.706;9.258;2023-01-10T01:33:15;97642.34;;;5.56;100.00
21574;BME280;10948;48.706;9.258;2023-01-10T01:35:41;97647.38;;;5.59;100.00
21574;BME280;10948;48.706;9.258;2023-01-10T01:38:07;97650.16;;;5.55;100.00
21574;BME280;10948;48.706;9.258;2023-01-10T01:40:32;97665.69;;;5.53;100.00
21574;BME280;10948;48.706;9.258;2023-01-10T01:42:57;97666.47;;;5.55;100.00
21574;BME280;10948;48.706;9.258;2023-01-10T01:50:23;97673.69;;;5.47;100.00
21574;BME280;10948;48.706;9.258;2023-01-10T01:52:50;97687.03;;;5.37;100.00
21574;BME280;10948;48.706;9.258;2023-01-10T01:55:16;97689.44;;;5.41;100.00
21574;BME280;10948;48.706;9.258;2023-01-10T01:57:42;97701.19;;;5.48;100.00
21574;BME280;10948;48.706;9.258;2023-01-10T02:00:09;97703.09;;;5.43;100.00
21574;BME280;10948;48.706;9.258;2023-01-10T02:02:38;97707.03;;;5.32;100.00
21574;BME280;10948;48.706;9.258;2023-01-10T02:05:07;97706.59;;;5.42;100.00
21574;BME280;10948;48.706;9.258;2023-01-10T02:07:36;97710.97;;;5.40;100.00
21574;BME280;10948;48.706;9.258;2023-01-10T02:12:28;97720.78;;;5.32;100.00
21574;BME280;10948;48.706;9.258;2023-01-10T02:14:54;97723.69;;;5.45;100.00
21574;BME280;10948;48.706;9.258;2023-01-10T02:17:19;97725.56;;;5.41;100.00
21574;BME280;10948;48.706;9.258;2023-01-10T02:27:34;97751.09;;;5.47;100.00
21574;BME280;10948;48.706;9.258;2023-01-10T02:35:16;97768.50;;;5.64;100.00
21574;BME280;10948;48.706;9.258;2023-01-10T02:40:20;97781.22;;;5.68;100.00
21574;BME280;10948;48.706;9.258;2023-01-10T02:43:09;97780.34;;;5.68;100.00
21574;BME280;10948;48.706;9.258;2023-01-10T02:45:34;97775.47;;;5.62;100.00
21574;BME280;10948;48.706;9.258;2023-01-10T02:48:00;97782.66;;;5.54;100.00
21574;BME280;10948;48.706;9.258;2023-01-10T02:50:41;97786.63;;;5.62;100.00
21574;BME280;10948;48.706;9.258;2023-01-10T02:53:42;97787.91;;;5.52;100.00
21574;BME280;10948;48.706;9.258;2023-01-10T02:58:50;97795.25;;;5.61;100.00
21574;BME280;10948;48.706;9.258;2023-01-10T03:09:15;97817.28;;;5.48;100.00
21574;BME280;10948;48.706;9.258;2023-01-10T03:11:42;97828.78;;;5.63;100.00
21574;BME280;10948;48.706;9.258;2023-01-10T03:14:15;97832.31;;;5.60;100.00
21574;BME280;10948;48.706;9.258;2023-01-10T03:16:41;97836.78;;;5.55;100.00
21574;BME280;10948;48.706;9.258;2023-01-10T03:19:10;97837.75;;;5.53;100.00
21574;BME280;10948;48.706;9.258;2023-01-10T03:21:36;97845.56;;;5.51;100.00
21574;BME280;10948;48.706;9.258;2023-01-10T03:24:05;97856.78;;;5.50;100.00
21574;BME280;10948;48.706;9.258;2023-01-10T03:26:36;97859.25;;;5.53;100.00
21574;BME280;10948;48.706;9.258;2023-01-10T03:29:08;97872.09;;;5.55;100.00
21574;BME280;10948;48.706;9.258;2023-01-10T03:31:40;97880.84;;;5.51;100.00
21574;BME280;10948;48.706;9.258;2023-01-10T03:34:18;97886.38;;;5.63;100.00
21574;BME280;10948;48.706;9.258;2023-01-10T03:39:33;97899.09;;;5.68;100.00
21574;BME280;10948;48.706;9.258;2023-01-10T03:42:07;97901.41;;;5.75;100.00
21574;BME280;10948;48.706;9.258;2023-01-10T03:52:40;97913.63;;;5.70;100.00
21574;BME280;10948;48.706;9.258;2023-01-10T03:55:06;97907.03;;;5.63;100.00
21574;BME280;10948;48.706;9.258;2023-01-10T03:57:33;97919.81;;;5.66;100.00
21574;BME280;10948;48.706;9.258;2023-01-10T03:59:59;97925.09;;;5.63;100.00
21574;BME280;10948;48.706;9.258;2023-01-10T04:02:25;97925.16;;;5.62;100.00
21574;BME280;10948;48.706;9.258;2023-01-10T04:04:51;97932.59;;;5.69;100.00
21574;BME280;10948;48.706;9.258;2023-01-10T04:07:16;97942.94;;;5.69;100.00
21574;BME280;10948;48.706;9.258;2023-01-10T04:09:41;97946.31;;;5.71;100.00
21574;BME280;10948;48.706;9.258;2023-01-10T04:12:06;97948.09;;;5.69;100.00
21574;BME280;10948;48.706;9.258;2023-01-10T04:14:32;97950.72;;;5.68;100.00
21574;BME280;10948;48.706;9.258;2023-01-10T04:16:57;97949.72;;;5.72;100.00
21574;BME280;10948;48.706;9.258;2023-01-10T04:19:23;97966.50;;;5.60;100.00
21574;BME280;10948;48.706;9.258;2023-01-10T04:21:48;97970.19;;;5.55;100.00
21574;BME280;10948;48.706;9.258;2023-01-10T04:24:14;97974.63;;;5.51;100.00
21574;BME280;10948;48.706;9.258;2023-01-10T04:26:39;97972.81;;;5.53;100.00
21574;BME280;10948;48.706;9.258;2023-01-10T04:29:04;97984.06;;;5.51;100.00
21574;BME280;10948;48.706;9.258;2023-01-10T04:31:30;97988.84;;;5.38;100.00
21574;BME280;10948;48.706;9.258;2023-01-10T04:33:55;97990.97;;;5.50;100.00
21574;BME280;10948;48.706;9.258;2023-01-10T04:36:20;97992.09;;;5.43;100.00
21574;BME280;10948;48.706;9.258;2023-01-10T04:38:46;97997.94;;;5.48;100.00
21574;BME280;10948;48.706;9.258;2023-01-10T04:41:14;98005.06;;;5.42;100.00
21574;BME280;10948;48.706;9.258;2023-01-10T04:43:40;98006.09;;;5.36;100.00
21574;BME280;10948;48.706;9.258;2023-01-10T04:46:05;98004.84;;;5.23;100.00
21574;BME280;10948;48.706;9.258;2023-01-10T04:48:30;98003.00;;;5.27;100.00
21574;BME280;10948;48.706;9.258;2023-01-10T04:50:56;98013.50;;;5.22;100.00
21574;BME280;10948;48.706;9.258;2023-01-10T04:53:21;98016.25;;;5.18;100.00
21574;BME280;10948;48.706;9.258;2023-01-10T04:55:46;98028.81;;;5.27;100.00
21574;BME280;10948;48.706;9.258;2023-01-10T04:58:12;98031.88;;;5.13;100.00
21574;BME280;10948;48.706;9.258;2023-01-10T05:00:37;98042.16;;;5.15;100.00
21574;BME280;10948;48.706;9.258;2023-01-10T05:03:02;98044.44;;;5.22;100.00
21574;BME280;10948;48.706;9.258;2023-01-10T05:05:27;98046.66;;;5.08;100.00
21574;BME280;10948;48.706;9.258;2023-01-10T05:07:53;98060.97;;;5.17;100.00
21574;BME280;10948;48.706;9.258;2023-01-10T05:10:18;98062.44;;;5.00;100.00
21574;BME280;10948;48.706;9.258;2023-01-10T05:12:44;98067.75;;;4.95;100.00
21574;BME280;10948;48.706;9.258;2023-01-10T05:15:09;98073.03;;;4.91;100.00
21574;BME280;10948;48.706;9.258;2023-01-10T05:17:34;98079.69;;;4.97;100.00
21574;BME280;10948;48.706;9.258;2023-01-10T05:20:00;98080.50;;;4.74;100.00
21574;BME280;10948;48.706;9.258;2023-01-10T05:22:25;98075.22;;;4.77;100.00
21574;BME280;10948;48.706;9.258;2023-01-10T05:24:50;98078.41;;;4.85;100.00
21574;BME280;10948;48.706;9.258;2023-01-10T05:27:16;98074.59;;;4.70;100.00
21574;BME280;10948;48.706;9.258;2023-01-10T05:29:41;98088.09;;;4.78;100.00
21574;BME280;10948;48.706;9.258;2023-01-10T05:32:06;98087.72;;;4.89;100.00
21574;BME280;10948;48.706;9.258;2023-01-10T05:34:32;98084.28;;;4.88;100.00
21574;BME280;10948;48.706;9.258;2023-01-10T05:36:57;98093.78;;;4.88;100.00
21574;BME280;10948;48.706;9.258;2023-01-10T05:39:23;98093.03;;;4.84;100.00
21574;BME280;10948;48.706;9.258;2023-01-10T05:41:48;98097.44;;;4.81;100.00
21574;BME280;10948;48.706;9.258;2023-01-10T05:44:13;98105.88;;;4.86;100.00
21574;BME280;10948;48.706;9.258;2023-01-10T05:46:38;98106.53;;;4.92;100.00
21574;BME280;10948;48.706;9.258;2023-01-10T05:49:03;98107.75;;;4.81;100.00
21574;BME280;10948;48.706;9.258;2023-01-10T05:51:29;98120.16;;;4.96;100.00
21574;BME280;10948;48.706;9.258;2023-01-10T05:53:54;98125.72;;;5.09;100.00
21574;BME280;10948;48.706;9.258;2023-01-10T05:56:19;98133.47;;;5.08;100.00
21574;BME280;10948;48.706;9.258;2023-01-10T05:58:44;98141.09;;;5.13;100.00
21574;BME280;10948;48.706;9.258;2023-01-10T06:01:10;98137.50;;;5.16;100.00
21574;BME280;10948;48.706;9.258;2023-01-10T06:03:35;98154.03;;;5.11;100.00
21574;BME280;10948;48.706;9.258;2023-01-10T06:06:00;98157.16;;;5.20;100.00
21574;BME280;10948;48.706;9.258;2023-01-10T06:08:27;98151.50;;;5.09;100.00
21574;BME280;10948;48.706;9.258;2023-01-10T06:10:53;98154.06;;;5.09;100.00
21574;BME280;10948;48.706;9.258;2023-01-10T06:13:18;98160.06;;;5.12;100.00
21574;BME280;10948;48.706;9.258;2023-01-10T06:15:43;98158.97;;;5.18;100.00
21574;BME280;10948;48.706;9.258;2023-01-10T06:18:08;98147.75;;;5.19;100.00
21574;BME280;10948;48.706;9.258;2023-01-10T06:20:34;98150.78;;;5.30;100.00
21574;BME280;10948;48.706;9.258;2023-01-10T06:22:59;98157.16;;;5.20;100.00
21574;BME280;10948;48.706;9.258;2023-01-10T06:25:28;98150.59;;;5.36;100.00
21574;BME280;10948;48.706;9.258;2023-01-10T06:27:53;98159.44;;;5.54;100.00
21574;BME280;10948;48.706;9.258;2023-01-10T06:30:19;98160.97;;;5.85;100.00
21574;BME280;10948;48.706;9.258;2023-01-10T06:32:44;98168.22;;;5.99;100.00
21574;BME280;10948;48.706;9.258;2023-01-10T06:35:09;98174.81;;;5.58;100.00
21574;BME280;10948;48.706;9.258;2023-01-10T06:37:34;98176.13;;;5.45;100.00
21574;BME280;10948;48.706;9.258;2023-01-10T06:39:59;98190.00;;;5.41;100.00
21574;BME280;10948;48.706;9.258;2023-01-10T06:42:25;98202.31;;;5.33;100.00
21574;BME280;10948;48.706;9.258;2023-01-10T06:44:51;98201.22;;;5.40;100.00
21574;BME280;10948;48.706;9.258;2023-01-10T06:47:16;98212.25;;;5.45;100.00
21574;BME280;10948;48.706;9.258;2023-01-10T06:49:41;98222.94;;;5.33;100.00
21574;BME280;10948;48.706;9.258;2023-01-10T06:52:07;98216.38;;;5.23;100.00
21574;BME280;10948;48.706;9.258;2023-01-10T06:54:32;98219.25;;;5.14;100.00
21574;BME280;10948;48.706;9.258;2023-01-10T06:56:57;98223.81;;;5.07;100.00
21574;BME280;10948;48.706;9.258;2023-01-10T06:59:22;98227.00;;;5.14;100.00
21574;BME280;10948;48.706;9.258;2023-01-10T07:01:47;98233.81;;;5.17;100.00
21574;BME280;10948;48.706;9.258;2023-01-10T07:04:13;98242.75;;;5.06;100.00
21574;BME280;10948;48.706;9.258;2023-01-10T07:06:38;98247.06;;;5.05;100.00
21574;BME280;10948;48.706;9.258;2023-01-10T07:09:04;98252.38;;;5.01;100.00
21574;BME280;10948;48.706;9.258;2023-01-10T07:11:30;98253.09;;;5.06;100.00
21574;BME280;10948;48.706;9.258;2023-01-10T07:13:56;98254.75;;;5.07;100.00
21574;BME280;10948;48.706;9.258;2023-01-10T07:16:21;98254.66;;;5.09;100.00
21574;BME280;10948;48.706;9.258;2023-01-10T07:18:46;98264.03;;;5.12;100.00
21574;BME280;10948;48.706;9.258;2023-01-10T07:21:11;98264.97;;;5.09;100.00
21574;BME280;10948;48.706;9.258;2023-01-10T07:23:37;98271.81;;;5.10;100.00
21574;BME280;10948;48.706;9.258;2023-01-10T07:26:03;98283.59;;;5.19;100.00
21574;BME280;10948;48.706;9.258;2023-01-10T07:28:28;98289.09;;;5.08;100.00
21574;BME280;10948;48.706;9.258;2023-01-10T07:30:54;98297.53;;;5.13;100.00
21574;BME280;10948;48.706;9.258;2023-01-10T07:33:21;98299.41;;;5.08;100.00
21574;BME280;10948;48.706;9.258;2023-01-10T07:35:47;98298.50;;;5.09;100.00
21574;BME280;10948;48.706;9.258;2023-01-10T07:38:12;98304.47;;;5.12;100.00
21574;BME280;10948;48.706;9.258;2023-01-10T07:40:37;98296.50;;;5.19;100.00
21574;BME280;10948;48.706;9.258;2023-01-10T07:43:03;98284.31;;;5.24;100.00
21574;BME280;10948;48.706;9.258;2023-01-10T07:45:28;98277.03;;;5.36;100.00
21574;BME280;10948;48.706;9.258;2023-01-10T07:47:55;98295.66;;;5.18;100.00
21574;BME280;10948;48.706;9.258;2023-01-10T07:50:20;98308.59;;;5.17;100.00
21574;BME280;10948;48.706;9.258;2023-01-10T07:52:46;98307.66;;;5.19;100.00
21574;BME280;10948;48.706;9.258;2023-01-10T07:55:11;98326.41;;;5.24;100.00
21574;BME280;10948;48.706;9.258;2023-01-10T07:57:36;98331.13;;;5.39;100.00
21574;BME280;10948;48.706;9.258;2023-01-10T08:00:02;98340.13;;;5.26;100.00
21574;BME280;10948;48.706;9.258;2023-01-10T08:02:28;98338.25;;;5.31;100.00
21574;BME280;10948;48.706;9.258;2023-01-10T08:04:53;98330.38;;;5.36;100.00
21574;BME280;10948;48.706;9.258;2023-01-10T08:07:18;98347.38;;;5.43;100.00
21574;BME280;10948;48.706;9.258;2023-01-10T08:09:43;98350.84;;;5.42;100.00
21574;BME280;10948;48.706;9.258;2023-01-10T08:12:09;98349.88;;;5.44;100.00
21574;BME280;10948;48.706;9.258;2023-01-10T08:14:35;98345.34;;;5.52;100.00
21574;BME280;10948;48.706;9.258;2023-01-10T08:17:00;98352.97;;;5.55;100.00
21574;BME280;10948;48.706;9.258;2023-01-10T08:19:25;98353.84;;;5.56;100.00
21574;BME280;10948;48.706;9.258;2023-01-10T08:21:51;98350.94;;;5.66;100.00
21574;BME280;10948;48.706;9.258;2023-01-10T08:24:16;98350.84;;;5.68;100.00
21574;BME280;10948;48.706;9.258;2023-01-10T08:26:41;98363.97;;;5.62;100.00
21574;BME280;10948;48.706;9.258;2023-01-10T08:29:06;98369.97;;;5.62;100.00
21574;BME280;10948;48.706;9.258;2023-01-10T08:31:32;98370.38;;;5.76;100.00
21574;BME280;10948;48.706;9.258;2023-01-10T08:33:57;98369.25;;;5.86;100.00
21574;BME280;10948;48.706;9.258;2023-01-10T08:36:22;98368.16;;;5.93;100.00
21574;BME280;10948;48.706;9.258;2023-01-10T08:38:48;98375.38;;;6.10;100.00
21574;BME280;10948;48.706;9.258;2023-01-10T08:41:15;98382.38;;;6.06;100.00
21574;BME280;10948;48.706;9.258;2023-01-10T08:43:40;98382.19;;;6.12;100.00
21574;BME280;10948;48.706;9.258;2023-01-10T08:46:05;98377.69;;;6.17;100.00
21574;BME280;10948;48.706;9.258;2023-01-10T08:48:31;98384.25;;;6.27;100.00
21574;BME280;10948;48.706;9.258;2023-01-10T08:50:56;98377.75;;;6.16;100.00
21574;BME280;10948;48.706;9.258;2023-01-10T08:53:21;98386.44;;;6.39;100.00
21574;BME280;10948;48.706;9.258;2023-01-10T08:55:47;98381.06;;;6.19;100.00
21574;BME280;10948;48.706;9.258;2023-01-10T08:58:13;98380.38;;;6.14;100.00
21574;BME280;10948;48.706;9.258;2023-01-10T09:00:38;98377.75;;;6.16;100.00
21574;BME280;10948;48.706;9.258;2023-01-10T09:03:05;98383.47;;;6.25;100.00
21574;BME280;10948;48.706;9.258;2023-01-10T09:05:30;98386.72;;;6.30;100.00
21574;BME280;10948;48.706;9.258;2023-01-10T09:07:59;98391.88;;;6.30;100.00
21574;BME280;10948;48.706;9.258;2023-01-10T09:10:25;98398.25;;;6.20;100.00
21574;BME280;10948;48.706;9.258;2023-01-10T09:12:50;98408.44;;;6.25;100.00
21574;BME280;10948;48.706;9.258;2023-01-10T09:15:27;98407.81;;;6.18;100.00
21574;BME280;10948;48.706;9.258;2023-01-10T09:17:54;98410.13;;;6.26;100.00
21574;BME280;10948;48.706;9.258;2023-01-10T09:20:19;98406.09;;;6.17;100.00
21574;BME280;10948;48.706;9.258;2023-01-10T09:22:45;98414.13;;;6.10;100.00
21574;BME280;10948;48.706;9.258;2023-01-10T09:25:10;98421.22;;;6.29;100.00
21574;BME280;10948;48.706;9.258;2023-01-10T09:27:35;98427.47;;;6.22;100.00
21574;BME280;10948;48.706;9.258;2023-01-10T09:30:01;98420.63;;;6.21;100.00
21574;BME280;10948;48.706;9.258;2023-01-10T09:32:26;98431.50;;;6.31;100.00
21574;BME280;10948;48.706;9.258;2023-01-10T09:34:51;98431.19;;;6.14;100.00
21574;BME280;10948;48.706;9.258;2023-01-10T09:37:17;98438.81;;;6.18;100.00
21574;BME280;10948;48.706;9.258;2023-01-10T09:39:42;98437.09;;;6.17;100.00
21574;BME280;10948;48.706;9.258;2023-01-10T09:42:23;98446.50;;;6.20;100.00
21574;BME280;10948;48.706;9.258;2023-01-10T09:50:20;98459.91;;;6.32;100.00
21574;BME280;10948;48.706;9.258;2023-01-10T09:53:22;98456.69;;;6.50;100.00
21574;BME280;10948;48.706;9.258;2023-01-10T09:55:39;98458.41;;;6.25;100.00
21574;BME280;10948;48.706;9.258;2023-01-10T09:58:08;98456.59;;;6.27;100.00
21574;BME280;10948;48.706;9.258;2023-01-10T10:00:37;98462.28;;;6.38;100.00
21574;BME280;10948;48.706;9.258;2023-01-10T10:03:04;98459.97;;;6.55;100.00
21574;BME280;10948;48.706;9.258;2023-01-10T10:05:29;98468.63;;;6.54;100.00
21574;BME280;10948;48.706;9.258;2023-01-10T10:08:01;98468.41;;;6.36;100.00
21574;BME280;10948;48.706;9.258;2023-01-10T10:10:39;98470.81;;;6.40;100.00
21574;BME280;10948;48.706;9.258;2023-01-10T10:15:50;98469.13;;;6.39;100.00
21574;BME280;10948;48.706;9.258;2023-01-10T10:36:20;98449.72;;;7.03;100.00
21574;BME280;10948;48.706;9.258;2023-01-10T10:38:38;98453.78;;;7.10;100.00
21574;BME280;10948;48.706;9.258;2023-01-10T10:41:13;98448.91;;;7.01;100.00
21574;BME280;10948;48.706;9.258;2023-01-10T10:43:40;98449.75;;;7.01;100.00
21574;BME280;10948;48.706;9.258;2023-01-10T10:46:11;98455.47;;;6.86;100.00
21574;BME280;10948;48.706;9.258;2023-01-10T10:48:38;98454.16;;;6.99;100.00
21574;BME280;10948;48.706;9.258;2023-01-10T10:53:49;98447.50;;;6.92;100.00
21574;BME280;10948;48.706;9.258;2023-01-10T10:56:16;98439.22;;;7.30;100.00
21574;BME280;10948;48.706;9.258;2023-01-10T10:58:45;98434.50;;;7.41;100.00
21574;BME280;10948;48.706;9.258;2023-01-10T11:01:12;98446.78;;;7.59;100.00
21574;BME280;10948;48.706;9.258;2023-01-10T11:06:04;98437.63;;;7.49;100.00
21574;BME280;10948;48.706;9.258;2023-01-10T11:08:30;98453.88;;;7.31;100.00
21574;BME280;10948;48.706;9.258;2023-01-10T11:11:00;98451.41;;;7.27;100.00
21574;BME280;10948;48.706;9.258;2023-01-10T11:15:59;98456.50;;;7.53;100.00
21574;BME280;10948;48.706;9.258;2023-01-10T11:18:26;98464.53;;;7.22;100.00
21574;BME280;10948;48.706;9.258;2023-01-10T11:20:53;98457.34;;;7.53;100.00
21574;BME280;10948;48.706;9.258;2023-01-10T11:23:48;98465.19;;;7.75;100.00
21574;BME280;10948;48.706;9.258;2023-01-10T11:28:48;98456.03;;;8.09;100.00
21574;BME280;10948;48.706;9.258;2023-01-10T11:31:15;98446.00;;;8.02;100.00
21574;BME280;10948;48.706;9.258;2023-01-10T11:33:49;98455.41;;;7.81;100.00
21574;BME280;10948;48.706;9.258;2023-01-10T11:36:14;98451.22;;;8.00;100.00
21574;BME280;10948;48.706;9.258;2023-01-10T11:38:40;98452.09;;;8.22;100.00
21574;BME280;10948;48.706;9.258;2023-01-10T11:41:26;98452.94;;;8.44;100.00
21574;BME280;10948;48.706;9.258;2023-01-10T11:44:00;98444.63;;;9.16;100.00
21574;BME280;10948;48.706;9.258;2023-01-10T11:46:38;98443.38;;;8.66;100.00
21574;BME280;10948;48.706;9.258;2023-01-10T11:49:07;98444.88;;;8.50;100.00
21574;BME280;10948;48.706;9.258;2023-01-10T11:51:37;98446.22;;;8.80;100.00
21574;BME280;10948;48.706;9.258;2023-01-10T11:54:10;98446.53;;;8.73;100.00
21574;BME280;10948;48.706;9.258;2023-01-10T11:56:35;98445.72;;;8.72;100.00
21574;BME280;10948;48.706;9.258;2023-01-10T11:59:11;98441.22;;;8.34;100.00
21574;BME280;10948;48.706;9.258;2023-01-10T12:04:02;98441.75;;;8.42;100.00
21574;BME280;10948;48.706;9.258;2023-01-10T12:06:28;98446.47;;;8.74;100.00
21574;BME280;10948;48.706;9.258;2023-01-10T12:08:54;98431.78;;;9.33;96.01
21574;BME280;10948;48.706;9.258;2023-01-10T12:11:24;98428.53;;;9.28;94.06
21574;BME280;10948;48.706;9.258;2023-01-10T12:13:51;98437.22;;;9.84;90.31
21574;BME280;10948;48.706;9.258;2023-01-10T12:18:43;98428.00;;;9.96;85.84
21574;BME280;10948;48.706;9.258;2023-01-10T12:21:09;98428.97;;;10.30;86.89
21574;BME280;10948;48.706;9.258;2023-01-10T12:23:36;98413.56;;;11.75;78.74
21574;BME280;10948;48.706;9.258;2023-01-10T12:26:06;98415.81;;;11.49;75.90
21574;BME280;10948;48.706;9.258;2023-01-10T12:28:31;98407.22;;;11.31;73.78
21574;BME280;10948;48.706;9.258;2023-01-10T12:30:58;98396.72;;;11.00;75.34
21574;BME280;10948;48.706;9.258;2023-01-10T12:33:29;98396.88;;;9.76;79.43
21574;BME280;10948;48.706;9.258;2023-01-10T12:35:58;98393.78;;;9.86;81.19
21574;BME280;10948;48.706;9.258;2023-01-10T12:39:02;98399.03;;;10.03;80.42
21574;BME280;10948;48.706;9.258;2023-01-10T12:41:31;98395.03;;;11.80;74.99
21574;BME280;10948;48.706;9.258;2023-01-10T12:44:19;98389.00;;;11.47;74.07
21574;BME280;10948;48.706;9.258;2023-01-10T12:46:47;98381.94;;;11.81;72.67
21574;BME280;10948;48.706;9.258;2023-01-10T12:49:20;98381.84;;;10.70;75.94
21574;BME280;10948;48.706;9.258;2023-01-10T12:51:47;98392.03;;;11.07;74.29
21574;BME280;10948;48.706;9.258;2023-01-10T12:54:15;98399.03;;;10.89;74.23
21574;BME280;10948;48.706;9.258;2023-01-10T12:56:42;98385.81;;;11.09;75.00
21574;BME280;10948;48.706;9.258;2023-01-10T12:59:41;98389.69;;;10.18;75.86
21574;BME280;10948;48.706;9.258;2023-01-10T13:02:02;98388.50;;;11.08;76.66
21574;BME280;10948;48.706;9.258;2023-01-10T13:04:28;98388.69;;;11.05;74.57
21574;BME280;10948;48.706;9.258;2023-01-10T13:06:55;98389.03;;;9.77;78.84
21574;BME280;10948;48.706;9.258;2023-01-10T13:09:22;98398.88;;;10.25;79.53
21574;BME280;10948;48.706;9.258;2023-01-10T13:14:45;98397.19;;;10.91;76.76
21574;BME280;10948;48.706;9.258;2023-01-10T13:17:23;98383.91;;;10.96;74.73
21574;BME280;10948;48.706;9.258;2023-01-10T13:22:34;98386.19;;;10.70;72.97
21574;BME280;10948;48.706;9.258;2023-01-10T13:25:00;98384.09;;;10.42;74.23
21574;BME280;10948;48.706;9.258;2023-01-10T13:27:30;98381.22;;;9.77;76.92
21574;BME280;10948;48.706;9.258;2023-01-10T13:29:56;98389.09;;;9.39;80.11
21574;BME280;10948;48.706;9.258;2023-01-10T13:34:47;98373.22;;;9.26;85.05
21574;BME280;10948;48.706;9.258;2023-01-10T13:37:23;98379.28;;;9.45;84.46
21574;BME280;10948;48.706;9.258;2023-01-10T13:39:50;98380.09;;;9.27;84.51
21574;BME280;10948;48.706;9.258;2023-01-10T13:42:30;98386.16;;;9.46;85.04
21574;BME280;10948;48.706;9.258;2023-01-10T13:45:22;98384.16;;;9.88;82.59
21574;BME280;10948;48.706;9.258;2023-01-10T13:51:05;98391.63;;;9.40;77.38
21574;BME280;10948;48.706;9.258;2023-01-10T14:03:41;98392.38;;;9.24;76.51
21574;BME280;10948;48.706;9.258;2023-01-10T14:08:53;98401.19;;;9.01;79.79
21574;BME280;10948;48.706;9.258;2023-01-10T14:11:19;98390.72;;;9.03;79.93
21574;BME280;10948;48.706;9.258;2023-01-10T14:13:46;98400.41;;;8.99;79.56
21574;BME280;10948;48.706;9.258;2023-01-10T14:18:51;98391.22;;;8.72;79.94
21574;BME280;10948;48.706;9.258;2023-01-10T14:21:23;98405.47;;;8.62;79.29
21574;BME280;10948;48.706;9.258;2023-01-10T14:23:49;98395.03;;;8.64;78.42
21574;BME280;10948;48.706;9.258;2023-01-10T14:26:17;98399.78;;;8.74;79.43
21574;BME280;10948;48.706;9.258;2023-01-10T14:28:45;98397.94;;;8.36;80.79
21574;BME280;10948;48.706;9.258;2023-01-10T14:31:12;98401.19;;;8.41;81.19
21574;BME280;10948;48.706;9.258;2023-01-10T14:33:47;98398.19;;;8.50;81.60
21574;BME280;10948;48.706;9.258;2023-01-10T14:36:13;98400.91;;;8.27;83.91
21574;BME280;10948;48.706;9.258;2023-01-10T14:38:39;98403.13;;;8.15;82.75
21574;BME280;10948;48.706;9.258;2023-01-10T14:43:47;98407.03;;;8.03;86.12
21574;BME280;10948;48.706;9.258;2023-01-10T14:46:18;98400.41;;;7.96;87.06
21574;BME280;10948;48.706;9.258;2023-01-10T14:53:45;98381.44;;;7.74;88.47
21574;BME280;10948;48.706;9.258;2023-01-10T14:56:20;98379.59;;;7.76;87.50
21574;BME280;10948;48.706;9.258;2023-01-10T14:58:47;98377.94;;;7.75;87.48
21574;BME280;10948;48.706;9.258;2023-01-10T15:01:13;98373.41;;;7.59;87.81
21574;BME280;10948;48.706;9.258;2023-01-10T15:03:45;98377.63;;;7.61;87.11